Neva Lux — UGZF — position and weather

sailwx.info

Track history (hours):
 
Tides and Currents Weather Stations Pressure Air Temp Water Temp Dewpoint Dewpoint Depression Visibility Wind Speed Wind Dir Waves Ship Positions

Neva Lux

Last reported at 2014-Dec-18 12:23 UTC. Time now 2014-Dec-19 08:02 UTC.
Position N 59°55' E 030°13'.

Length 65 m; draft 3.5 m.

Type: Tanker. MMSI: 273426540.

Date/timePositionNaut miles runAvg speedWind from/ knotsBaromVisibWave heightAir tempDewpointWater temp
2014-Dec-18 12:23N 59°55' E 030°13'0 0.4
2014-Dec-18 11:33N 59°55' E 030°14'0 0.2
2014-Dec-18 10:33N 59°55' E 030°14'0 0.0
2014-Dec-18 09:33N 59°55' E 030°14'0 0.0
2014-Dec-18 08:33N 59°55' E 030°14'0 0.0
2014-Dec-18 07:33N 59°55' E 030°14'0 0.0
2014-Dec-18 06:33N 59°55' E 030°14'2 0.2
2014-Dec-17 22:17N 59°53' E 030°11'2 0.2
2014-Dec-17 15:30N 59°54' E 030°14'0 0.0
2014-Dec-17 14:08N 59°54' E 030°14'0 0.0
2014-Dec-17 13:32N 59°54' E 030°14'0 0.0
2014-Dec-17 12:33N 59°54' E 030°14'0 0.0
2014-Dec-17 11:32N 59°54' E 030°14'1 0.6
2014-Dec-17 09:33N 59°55' E 030°14'0 0.0
2014-Dec-16 17:33N 59°55' E 030°14'0 0.0
2014-Dec-16 16:33N 59°55' E 030°14'0 0.0
2014-Dec-16 15:33N 59°55' E 030°14'0 0.0
2014-Dec-16 14:31N 59°55' E 030°14'0 0.0
2014-Dec-16 13:33N 59°55' E 030°14'0 0.2
2014-Dec-16 12:12N 59°55' E 030°14'0 0.0
2014-Dec-16 11:32N 59°55' E 030°14'0 0.0
2014-Dec-16 10:33N 59°55' E 030°14'0 0.0
2014-Dec-16 09:33N 59°55' E 030°14'0 0.0
2014-Dec-16 08:31N 59°55' E 030°14'0 0.0
2014-Dec-16 07:33N 59°55' E 030°14'1 0.6
2014-Dec-16 06:33N 59°54' E 030°13'1 0.1
2014-Dec-15 19:31N 59°53' E 030°12'  
2014-Dec-13 13:33N 59°53' E 030°11'2 1.7
2014-Dec-13 12:13N 59°55' E 030°14'0 0.0
2014-Dec-13 11:33N 59°55' E 030°14'0 0.0
2014-Dec-13 10:21N 59°55' E 030°14'0 0.0
2014-Dec-13 09:33N 59°55' E 030°14'0 0.0
2014-Dec-13 08:27N 59°55' E 030°14'0 0.0
2014-Dec-13 07:33N 59°55' E 030°14'0 0.0
2014-Dec-13 04:17N 59°55' E 030°14'0 0.0
2014-Dec-13 03:22N 59°55' E 030°14'0 0.0
2014-Dec-13 02:12N 59°55' E 030°14'0 0.0
2014-Dec-13 00:24N 59°55' E 030°14'0 0.0
2014-Dec-12 23:20N 59°55' E 030°14'0 0.0
2014-Dec-12 22:18N 59°55' E 030°14'0 0.1
2014-Dec-12 21:31N 59°55' E 030°14'1 0.1
2014-Dec-12 11:19N 59°54' E 030°13'1 0.2
2014-Dec-12 05:25N 59°55' E 030°13'0 0.0
2014-Dec-12 04:04N 59°55' E 030°13'0 0.0
2014-Dec-11 19:11N 59°55' E 030°13'0 0.6
2014-Dec-11 18:31N 59°55' E 030°14'0 0.0
2014-Dec-11 17:33N 59°55' E 030°14'0 0.0
2014-Dec-11 16:20N 59°55' E 030°14'0 0.0
2014-Dec-11 15:33N 59°55' E 030°14'0 0.0
2014-Dec-11 14:28N 59°55' E 030°14'0 0.0
2014-Dec-11 13:33N 59°55' E 030°14'0 0.0
2014-Dec-11 12:29N 59°55' E 030°14'0 0.0
2014-Dec-11 11:33N 59°55' E 030°14'0 0.0
2014-Dec-11 10:29N 59°55' E 030°14'0 0.1
2014-Dec-11 09:33N 59°55' E 030°14'1 0.1
2014-Dec-11 01:33N 59°55' E 030°15'0 0.1
2014-Dec-11 00:34N 59°55' E 030°15'0 0.0
2014-Dec-10 23:33N 59°55' E 030°15'0 0.0
2014-Dec-10 22:33N 59°55' E 030°15'0 0.0
2014-Dec-10 21:34N 59°55' E 030°15'2 0.4
2014-Dec-10 17:30N 59°54' E 030°13'1 0.8
2014-Dec-10 16:19N 59°55' E 030°13'0 0.0
2014-Dec-10 02:03N 59°55' E 030°13'0 0.5
2014-Dec-10 01:31N 59°54' E 030°14'1 0.1
2014-Dec-09 18:28N 59°54' E 030°13'1 0.8
2014-Dec-09 17:14N 59°55' E 030°13'0 0.0
2014-Dec-09 16:17N 59°55' E 030°13'0 0.0
2014-Dec-09 15:33N 59°55' E 030°13'0 0.0
2014-Dec-09 13:04N 59°55' E 030°13'0 0.0
2014-Dec-09 12:12N 59°55' E 030°13'0 0.0
2014-Dec-09 10:33N 59°55' E 030°13'0 0.0
2014-Dec-09 06:19N 59°55' E 030°13'0 0.0
2014-Dec-09 05:33N 59°55' E 030°13'0 0.0
2014-Dec-09 04:33N 59°55' E 030°13'0 0.0
2014-Dec-09 03:16N 59°55' E 030°13'0 0.0
2014-Dec-09 02:33N 59°55' E 030°13'0 0.0
2014-Dec-09 01:21N 59°55' E 030°13'0 0.0
2014-Dec-09 00:33N 59°55' E 030°13'0 0.0
2014-Dec-08 23:33N 59°55' E 030°13'0 0.0
2014-Dec-08 22:33N 59°55' E 030°13'0 0.0
2014-Dec-08 21:33N 59°55' E 030°13'0 0.0
2014-Dec-08 20:33N 59°55' E 030°13'0 0.0
2014-Dec-08 19:33N 59°55' E 030°13'0 0.1
2014-Dec-08 18:33N 59°55' E 030°13'1 0.2
2014-Dec-08 13:08N 59°54' E 030°13'1 1.3
2014-Dec-08 12:33N 59°54' E 030°14'  
Track history (hours):
 
Tides and Currents Weather Stations Pressure Air Temp Water Temp Dewpoint Dewpoint Depression Visibility Wind Speed Wind Dir Waves Ship Positions

Neva Lux

Last reported at 2014-Dec-18 12:23 UTC. Time now 2014-Dec-19 08:02 UTC.
Position N 59°55' E 030°13'.

Length 65 m; draft 3.5 m.

Type: Tanker. MMSI: 273426540.

Date/timePositionNaut miles runAvg speedWind from/ knotsBaromVisibWave heightAir tempDewpointWater temp
2014-Dec-18 12:23N 59°55' E 030°13'0 0.4
2014-Dec-18 11:33N 59°55' E 030°14'0 0.2
2014-Dec-18 10:33N 59°55' E 030°14'0 0.0
2014-Dec-18 09:33N 59°55' E 030°14'0 0.0
2014-Dec-18 08:33N 59°55' E 030°14'0 0.0
2014-Dec-18 07:33N 59°55' E 030°14'0 0.0
2014-Dec-18 06:33N 59°55' E 030°14'2 0.2
2014-Dec-17 22:17N 59°53' E 030°11'2 0.2
2014-Dec-17 15:30N 59°54' E 030°14'0 0.0
2014-Dec-17 14:08N 59°54' E 030°14'0 0.0
2014-Dec-17 13:32N 59°54' E 030°14'0 0.0
2014-Dec-17 12:33N 59°54' E 030°14'0 0.0
2014-Dec-17 11:32N 59°54' E 030°14'1 0.6
2014-Dec-17 09:33N 59°55' E 030°14'0 0.0
2014-Dec-16 17:33N 59°55' E 030°14'0 0.0
2014-Dec-16 16:33N 59°55' E 030°14'0 0.0
2014-Dec-16 15:33N 59°55' E 030°14'0 0.0
2014-Dec-16 14:31N 59°55' E 030°14'0 0.0
2014-Dec-16 13:33N 59°55' E 030°14'0 0.2
2014-Dec-16 12:12N 59°55' E 030°14'0 0.0
2014-Dec-16 11:32N 59°55' E 030°14'0 0.0
2014-Dec-16 10:33N 59°55' E 030°14'0 0.0
2014-Dec-16 09:33N 59°55' E 030°14'0 0.0
2014-Dec-16 08:31N 59°55' E 030°14'0 0.0
2014-Dec-16 07:33N 59°55' E 030°14'1 0.6
2014-Dec-16 06:33N 59°54' E 030°13'1 0.1
2014-Dec-15 19:31N 59°53' E 030°12'  
2014-Dec-13 13:33N 59°53' E 030°11'2 1.7
2014-Dec-13 12:13N 59°55' E 030°14'0 0.0
2014-Dec-13 11:33N 59°55' E 030°14'0 0.0
2014-Dec-13 10:21N 59°55' E 030°14'0 0.0
2014-Dec-13 09:33N 59°55' E 030°14'0 0.0
2014-Dec-13 08:27N 59°55' E 030°14'0 0.0
2014-Dec-13 07:33N 59°55' E 030°14'0 0.0
2014-Dec-13 04:17N 59°55' E 030°14'0 0.0
2014-Dec-13 03:22N 59°55' E 030°14'0 0.0
2014-Dec-13 02:12N 59°55' E 030°14'0 0.0
2014-Dec-13 00:24N 59°55' E 030°14'0 0.0
2014-Dec-12 23:20N 59°55' E 030°14'0 0.0
2014-Dec-12 22:18N 59°55' E 030°14'0 0.1
2014-Dec-12 21:31N 59°55' E 030°14'1 0.1
2014-Dec-12 11:19N 59°54' E 030°13'1 0.2
2014-Dec-12 05:25N 59°55' E 030°13'0 0.0
2014-Dec-12 04:04N 59°55' E 030°13'0 0.0
2014-Dec-11 19:11N 59°55' E 030°13'0 0.6
2014-Dec-11 18:31N 59°55' E 030°14'0 0.0
2014-Dec-11 17:33N 59°55' E 030°14'0 0.0
2014-Dec-11 16:20N 59°55' E 030°14'0 0.0
2014-Dec-11 15:33N 59°55' E 030°14'0 0.0
2014-Dec-11 14:28N 59°55' E 030°14'0 0.0
2014-Dec-11 13:33N 59°55' E 030°14'0 0.0
2014-Dec-11 12:29N 59°55' E 030°14'0 0.0
2014-Dec-11 11:33N 59°55' E 030°14'0 0.0
2014-Dec-11 10:29N 59°55' E 030°14'0 0.1
2014-Dec-11 09:33N 59°55' E 030°14'1 0.1
2014-Dec-11 01:33N 59°55' E 030°15'0 0.1
2014-Dec-11 00:34N 59°55' E 030°15'0 0.0
2014-Dec-10 23:33N 59°55' E 030°15'0 0.0
2014-Dec-10 22:33N 59°55' E 030°15'0 0.0
2014-Dec-10 21:34N 59°55' E 030°15'2 0.4
2014-Dec-10 17:30N 59°54' E 030°13'1 0.8
2014-Dec-10 16:19N 59°55' E 030°13'0 0.0
2014-Dec-10 02:03N 59°55' E 030°13'0 0.5
2014-Dec-10 01:31N 59°54' E 030°14'1 0.1
2014-Dec-09 18:28N 59°54' E 030°13'1 0.8
2014-Dec-09 17:14N 59°55' E 030°13'0 0.0
2014-Dec-09 16:17N 59°55' E 030°13'0 0.0
2014-Dec-09 15:33N 59°55' E 030°13'0 0.0
2014-Dec-09 13:04N 59°55' E 030°13'0 0.0
2014-Dec-09 12:12N 59°55' E 030°13'0 0.0
2014-Dec-09 10:33N 59°55' E 030°13'0 0.0
2014-Dec-09 06:19N 59°55' E 030°13'0 0.0
2014-Dec-09 05:33N 59°55' E 030°13'0 0.0
2014-Dec-09 04:33N 59°55' E 030°13'0 0.0
2014-Dec-09 03:16N 59°55' E 030°13'0 0.0
2014-Dec-09 02:33N 59°55' E 030°13'0 0.0
2014-Dec-09 01:21N 59°55' E 030°13'0 0.0
2014-Dec-09 00:33N 59°55' E 030°13'0 0.0
2014-Dec-08 23:33N 59°55' E 030°13'0 0.0
2014-Dec-08 22:33N 59°55' E 030°13'0 0.0
2014-Dec-08 21:33N 59°55' E 030°13'0 0.0
2014-Dec-08 20:33N 59°55' E 030°13'0 0.0
2014-Dec-08 19:33N 59°55' E 030°13'0 0.1
2014-Dec-08 18:33N 59°55' E 030°13'1 0.2
2014-Dec-08 13:08N 59°54' E 030°13'1 1.3
2014-Dec-08 12:33N 59°54' E 030°14'  

Dump ship's entire track history